Time;durP1;ratioP1;P1;durP2;ratioP2;P2;SDS_P1;SDS_P2;PMS_P1;PMS_P2;Temp;Humidity;BMP_temperature;BMP_pressure;BME280_temperature;BME280_humidity;BME280_pressure;Samples;Min_cycle;Max_cycle;Signal;HPM_P1;HPM_P2
2021/01/24 00:02:01;;;;;;;7.22;5.50;;;2.30;99.90;;;;;;4955403;28;20172;-78
2021/01/24 00:04:27;;;;;;;5.88;4.88;;;2.40;99.90;;;;;;4955887;28;20046;-78
2021/01/24 00:06:53;;;;;;;6.63;5.63;;;2.50;99.90;;;;;;4954124;29;20023;-78
2021/01/24 00:09:18;;;;;;;6.63;5.28;;;2.40;99.90;;;;;;4954098;29;20062;-78
2021/01/24 00:11:44;;;;;;;6.93;5.63;;;2.50;99.90;;;;;;4955368;28;20034;-78
2021/01/24 00:14:10;;;;;;;4.72;4.20;;;2.40;99.90;;;;;;4955312;28;20027;-78
2021/01/24 00:16:35;;;;;;;5.22;3.85;;;2.40;99.90;;;;;;4955532;28;20027;-78
2021/01/24 00:19:01;;;;;;;5.63;4.43;;;2.10;99.90;;;;;;4953978;28;20032;-78
2021/01/24 00:21:27;;;;;;;5.97;5.10;;;2.20;99.90;;;;;;4959464;28;20020;-78
2021/01/24 00:23:52;;;;;;;5.05;4.20;;;2.30;99.90;;;;;;4957898;29;20019;-78
2021/01/24 00:26:18;;;;;;;4.25;3.80;;;2.30;99.90;;;;;;4957848;29;20508;-78
2021/01/24 00:28:44;;;;;;;4.03;3.60;;;2.30;99.90;;;;;;4958024;29;20491;-78
2021/01/24 00:31:09;;;;;;;2.95;2.63;;;2.30;99.90;;;;;;4959019;28;20488;-78
2021/01/24 00:33:35;;;;;;;3.00;2.70;;;2.40;99.90;;;;;;4957660;29;20109;-78
2021/01/24 00:36:01;;;;;;;3.42;3.05;;;2.40;99.90;;;;;;4958856;28;20054;-78
2021/01/24 00:38:27;;;;;;;3.70;2.95;;;2.40;99.90;;;;;;4959078;28;20066;-78
2021/01/24 00:40:52;;;;;;;2.72;2.53;;;2.30;99.90;;;;;;4957590;29;20480;-78
2021/01/24 00:43:18;;;;;;;4.10;3.15;;;2.20;99.90;;;;;;4957540;29;20027;-78
2021/01/24 00:45:45;;;;;;;3.85;3.22;;;2.30;99.90;;;;;;4957449;29;20491;-78
2021/01/24 00:48:10;;;;;;;3.38;3.05;;;2.20;99.90;;;;;;4958504;28;20050;-78
2021/01/24 00:50:36;;;;;;;3.67;2.97;;;2.20;99.90;;;;;;4957470;29;20526;-78
2021/01/24 00:53:03;;;;;;;4.35;3.50;;;2.20;99.90;;;;;;4958572;28;20032;-78
2021/01/24 00:55:28;;;;;;;3.72;3.20;;;2.40;99.90;;;;;;4957308;29;20483;-78
2021/01/24 00:57:54;;;;;;;3.60;3.10;;;2.20;99.90;;;;;;4957197;29;20082;-78
2021/01/24 01:00:20;;;;;;;4.93;3.97;;;2.20;99.90;;;;;;4957190;29;20028;-78
2021/01/24 01:02:46;;;;;;;4.75;4.25;;;2.20;99.90;;;;;;4957143;29;20038;-78
2021/01/24 01:05:11;;;;;;;5.00;3.80;;;2.20;99.90;;;;;;4957136;29;20028;-78
2021/01/24 01:07:37;;;;;;;3.80;3.40;;;2.30;99.90;;;;;;4957146;29;20030;-78
2021/01/24 01:10:03;;;;;;;5.18;3.85;;;2.40;99.90;;;;;;4958553;28;20112;-78
2021/01/24 01:12:29;;;;;;;3.33;3.03;;;2.50;99.90;;;;;;4958606;28;20441;-78
2021/01/24 01:14:54;;;;;;;4.05;3.60;;;2.50;99.90;;;;;;4958559;28;20098;-78
2021/01/24 01:17:20;;;;;;;3.38;3.08;;;2.50;99.90;;;;;;4958463;28;20075;-78
2021/01/24 01:19:46;;;;;;;3.28;2.92;;;2.40;99.90;;;;;;4956838;29;20480;-78
2021/01/24 01:22:11;;;;;;;2.78;2.45;;;2.40;99.90;;;;;;4956872;29;20451;-78
2021/01/24 01:24:37;;;;;;;3.53;2.80;;;2.20;99.90;;;;;;4956790;29;20024;-78
2021/01/24 01:27:03;;;;;;;3.53;3.22;;;2.40;99.90;;;;;;4956758;29;20023;-78
2021/01/24 01:29:29;;;;;;;2.63;2.42;;;2.40;99.90;;;;;;4956716;29;20479;-78
2021/01/24 01:31:54;;;;;;;4.88;2.88;;;2.50;99.90;;;;;;4956393;28;20031;-77
2021/01/24 01:34:20;;;;;;;2.60;2.33;;;2.40;99.90;;;;;;4956666;29;20023;-78
2021/01/24 01:36:47;;;;;;;3.88;2.83;;;2.40;99.90;;;;;;4956538;28;20097;-78
2021/01/24 01:39:13;;;;;;;2.42;2.10;;;2.30;99.90;;;;;;4956459;29;20043;-78
2021/01/24 01:41:39;;;;;;;2.60;2.40;;;2.30;99.90;;;;;;4957762;28;20379;-78
2021/01/24 01:44:05;;;;;;;2.38;1.98;;;2.30;99.90;;;;;;4957731;28;20023;-78
2021/01/24 01:46:31;;;;;;;3.08;2.20;;;2.30;99.90;;;;;;4956414;29;20053;-78
2021/01/24 01:48:57;;;;;;;2.33;1.80;;;2.30;99.90;;;;;;4956222;29;20051;-78
2021/01/24 01:51:24;;;;;;;2.20;1.85;;;2.30;99.90;;;;;;4956341;29;20114;-78
2021/01/24 01:53:50;;;;;;;3.42;1.90;;;2.30;99.90;;;;;;4957557;28;20067;-78
2021/01/24 01:56:16;;;;;;;1.75;1.50;;;2.30;99.90;;;;;;4956513;29;20510;-78
2021/01/24 01:58:42;;;;;;;2.42;2.08;;;2.30;99.90;;;;;;4957403;28;20031;-79
2021/01/24 02:01:39;;;;;;;2.35;2.00;;;2.30;99.90;;;;;;4957378;28;20055;-79
2021/01/24 02:04:36;;;;;;;1.33;1.23;;;2.30;99.90;;;;;;4956091;29;20105;-79
2021/01/24 02:07:04;;;;;;;1.02;0.88;;;2.30;99.90;;;;;;4956047;29;20035;-79
2021/01/24 02:09:38;;;;;;;0.90;0.90;;;2.20;99.90;;;;;;4957248;28;20502;-78
2021/01/24 02:12:45;;;;;;;1.17;0.85;;;2.20;99.90;;;;;;4956005;29;20033;-79
2021/01/24 02:15:17;;;;;;;1.77;1.00;;;2.20;99.90;;;;;;4955860;29;20395;-79
2021/01/24 02:17:45;;;;;;;1.52;1.30;;;2.30;99.90;;;;;;4957133;28;20433;-78
2021/01/24 02:20:46;;;;;;;1.38;0.98;;;2.30;99.90;;;;;;4956893;28;20067;-78
2021/01/24 02:23:21;;;;;;;2.58;1.00;;;2.30;99.90;;;;;;4913956;29;20499;-78
2021/01/24 02:26:05;;;;;;;0.90;0.80;;;2.20;99.90;;;;;;4955717;29;20110;-78
2021/01/24 02:29:05;;;;;;;2.92;1.00;;;2.20;99.90;;;;;;4955679;29;20030;-78
2021/01/24 02:31:33;;;;;;;0.90;0.88;;;2.20;99.90;;;;;;4956805;28;20059;-78
2021/01/24 02:34:00;;;;;;;1.13;1.02;;;2.20;99.90;;;;;;4955510;29;20069;-78
2021/01/24 02:36:27;;;;;;;1.10;1.00;;;2.20;99.90;;;;;;4955359;28;20027;-78
2021/01/24 02:38:53;;;;;;;2.17;1.13;;;2.20;99.90;;;;;;4956608;28;20027;-77
2021/01/24 02:41:20;;;;;;;2.13;1.10;;;2.20;99.90;;;;;;4956672;28;20047;-78
2021/01/24 02:43:47;;;;;;;1.02;1.02;;;2.10;99.90;;;;;;4955936;28;20057;-78
2021/01/24 02:46:14;;;;;;;2.03;1.20;;;2.10;99.90;;;;;;4955352;29;20027;-78
2021/01/24 02:48:43;;;;;;;1.40;1.27;;;2.10;99.90;;;;;;4955086;29;20102;-78
2021/01/24 02:51:10;;;;;;;2.22;1.00;;;2.10;99.90;;;;;;4956464;28;20063;-78
2021/01/24 02:53:37;;;;;;;1.13;1.02;;;2.10;99.90;;;;;;4956458;28;20030;-78
2021/01/24 02:56:03;;;;;;;1.40;1.10;;;2.20;99.90;;;;;;4956438;28;20019;-78
2021/01/24 02:58:30;;;;;;;1.35;1.20;;;2.20;99.90;;;;;;4956280;28;20083;-77
2021/01/24 03:00:56;;;;;;;1.55;1.45;;;2.20;99.90;;;;;;4956609;28;20053;-78
2021/01/24 03:03:22;;;;;;;1.13;1.02;;;2.10;99.90;;;;;;4956316;28;20467;-79
2021/01/24 03:05:48;;;;;;;2.05;1.75;;;2.20;99.90;;;;;;4955033;29;20114;-78
2021/01/24 03:08:14;;;;;;;2.10;1.80;;;2.00;99.90;;;;;;4956206;28;20502;-78
2021/01/24 03:10:40;;;;;;;1.80;1.52;;;2.00;99.90;;;;;;4954886;29;20391;-78
2021/01/24 03:13:11;;;;;;;2.28;1.58;;;2.00;99.90;;;;;;4956150;28;20039;-78
2021/01/24 03:15:38;;;;;;;2.75;2.17;;;2.10;99.90;;;;;;4954838;29;20027;-78
2021/01/24 03:18:07;;;;;;;2.13;1.90;;;2.00;99.90;;;;;;4954692;29;20069;-78
2021/01/24 03:20:36;;;;;;;1.95;1.77;;;2.00;99.90;;;;;;4954716;29;20027;-78
2021/01/24 03:23:06;;;;;;;2.35;1.90;;;1.90;99.90;;;;;;4955975;28;20054;-78
2021/01/24 03:25:37;;;;;;;1.92;1.73;;;1.90;99.90;;;;;;4955965;28;20030;-78
2021/01/24 03:28:03;;;;;;;2.15;1.95;;;2.00;99.90;;;;;;4955901;28;20047;-78
2021/01/24 03:30:29;;;;;;;2.78;2.25;;;1.90;99.90;;;;;;4956075;28;20027;-78
2021/01/24 03:32:57;;;;;;;3.25;2.00;;;1.90;99.90;;;;;;4954507;29;20032;-78
2021/01/24 03:35:23;;;;;;;4.30;1.88;;;1.90;99.90;;;;;;4955750;28;20023;-78
2021/01/24 03:37:49;;;;;;;2.78;2.38;;;2.00;99.90;;;;;;4955635;28;20474;-78
2021/01/24 03:40:14;;;;;;;1.95;1.80;;;1.90;99.90;;;;;;4955628;28;20086;-79
2021/01/24 03:42:40;;;;;;;3.25;2.15;;;1.80;99.90;;;;;;4956174;28;20042;-78
2021/01/24 03:45:06;;;;;;;2.72;2.20;;;1.80;99.90;;;;;;4955600;28;20357;-78
2021/01/24 03:47:32;;;;;;;3.45;2.30;;;1.80;99.90;;;;;;4954314;29;20027;-77
2021/01/24 03:49:58;;;;;;;2.47;2.20;;;1.70;99.90;;;;;;4955446;28;20049;-78
2021/01/24 03:52:23;;;;;;;2.42;2.08;;;1.70;99.90;;;;;;4955578;28;20035;-78
2021/01/24 03:54:49;;;;;;;2.53;2.15;;;1.70;99.90;;;;;;4955491;28;20106;-78
2021/01/24 03:57:15;;;;;;;5.55;2.63;;;1.50;99.90;;;;;;4956039;28;20367;-78
2021/01/24 03:59:41;;;;;;;4.53;3.20;;;1.50;99.90;;;;;;4955424;28;20031;-77
2021/01/24 04:02:06;;;;;;;3.40;2.65;;;1.50;99.90;;;;;;4955745;28;20096;-77
2021/01/24 04:04:32;;;;;;;3.92;2.83;;;1.50;99.90;;;;;;4955417;28;20383;-78
2021/01/24 04:06:58;;;;;;;4.85;2.53;;;1.50;99.90;;;;;;4955698;28;20027;-78
2021/01/24 04:09:23;;;;;;;5.47;2.80;;;1.40;99.90;;;;;;4955629;28;20035;-77
2021/01/24 04:11:49;;;;;;;3.65;2.75;;;1.30;99.90;;;;;;4954150;29;20046;-77
2021/01/24 04:14:15;;;;;;;4.20;3.17;;;1.20;99.90;;;;;;4955601;28;20472;-77
2021/01/24 04:16:40;;;;;;;3.92;2.65;;;1.20;99.90;;;;;;4955566;28;20472;-77
2021/01/24 04:19:06;;;;;;;5.30;2.58;;;1.20;99.90;;;;;;4955235;28;20035;-77
2021/01/24 04:21:32;;;;;;;6.40;2.90;;;1.20;99.90;;;;;;4955282;28;20031;-77
2021/01/24 04:23:57;;;;;;;5.45;3.15;;;1.00;99.90;;;;;;4954038;29;20451;-77
2021/01/24 04:26:23;;;;;;;3.58;2.58;;;1.10;99.90;;;;;;4955209;28;20023;-78
2021/01/24 04:28:49;;;;;;;3.83;2.65;;;1.10;99.90;;;;;;4953948;29;20395;-77
2021/01/24 04:31:15;;;;;;;5.75;2.92;;;1.20;99.90;;;;;;4955219;28;20083;-77
2021/01/24 04:33:41;;;;;;;3.80;2.70;;;1.40;99.90;;;;;;4955157;28;20023;-77
2021/01/24 04:36:07;;;;;;;4.75;2.72;;;1.40;99.90;;;;;;4953841;28;20078;-77
2021/01/24 04:38:33;;;;;;;3.38;2.78;;;1.40;99.90;;;;;;4955063;28;20067;-77
2021/01/24 04:40:59;;;;;;;3.70;2.72;;;1.50;99.90;;;;;;4955099;28;20023;-77
2021/01/24 04:43:26;;;;;;;4.57;2.55;;;1.50;99.90;;;;;;4955055;28;20027;-78
2021/01/24 04:45:57;;;;;;;3.55;2.50;;;1.40;99.90;;;;;;4953797;29;20030;-77
2021/01/24 04:48:23;;;;;;;6.05;2.53;;;1.40;99.90;;;;;;4954880;28;20071;-77
2021/01/24 04:50:49;;;;;;;4.50;2.70;;;1.40;99.90;;;;;;4955024;28;20482;-77
2021/01/24 04:53:15;;;;;;;10.38;2.53;;;1.30;99.90;;;;;;4953718;29;20118;-77
2021/01/24 04:55:43;;;;;;;5.63;3.00;;;1.30;99.90;;;;;;4954962;28;20023;-77
2021/01/24 04:58:09;;;;;;;7.18;2.72;;;1.30;99.90;;;;;;4953629;29;20037;-77
2021/01/24 05:00:35;;;;;;;5.15;3.15;;;1.30;99.90;;;;;;4955218;28;20387;-77
2021/01/24 05:03:01;;;;;;;6.57;2.85;;;1.40;99.90;;;;;;4953674;29;20023;-77
2021/01/24 05:05:27;;;;;;;5.65;3.00;;;1.30;99.90;;;;;;4954307;28;20110;-77
2021/01/24 05:07:57;;;;;;;5.80;3.00;;;1.30;99.90;;;;;;4958391;28;20027;-77
2021/01/24 05:10:28;;;;;;;3.22;2.20;;;1.20;99.90;;;;;;4957130;29;20430;-77
2021/01/24 05:12:55;;;;;;;6.18;2.90;;;1.10;99.90;;;;;;4958627;28;20050;-78
2021/01/24 05:15:21;;;;;;;4.63;2.80;;;1.10;99.90;;;;;;4957025;29;20031;-77
2021/01/24 05:17:52;;;;;;;5.57;2.85;;;1.10;99.90;;;;;;4958251;28;20435;-77
2021/01/24 05:20:21;;;;;;;4.20;2.95;;;1.10;99.90;;;;;;4956814;29;20027;-78
2021/01/24 05:22:47;;;;;;;4.57;2.75;;;1.00;99.90;;;;;;4956829;29;20023;-77
2021/01/24 05:25:16;;;;;;;4.50;2.92;;;0.90;99.90;;;;;;4956826;29;20055;-77
2021/01/24 05:27:42;;;;;;;4.78;3.58;;;0.80;99.90;;;;;;4958048;28;20023;-78
2021/01/24 05:30:10;;;;;;;5.05;3.58;;;0.90;99.90;;;;;;4957977;28;20034;-77
2021/01/24 05:32:44;;;;;;;7.28;3.67;;;0.90;99.90;;;;;;4956605;29;20491;-77
2021/01/24 05:35:10;;;;;;;;;;;0.90;99.90;;;;;;4957082;29;20033;-77
2021/01/24 05:37:38;;;;;;;5.28;3.17;;;0.90;99.90;;;;;;4957867;28;20325;-77
2021/01/24 05:40:06;;;;;;;8.18;3.55;;;0.80;99.90;;;;;;4957760;28;20055;-77
2021/01/24 05:42:37;;;;;;;4.38;3.10;;;0.80;99.90;;;;;;4958043;28;20027;-77
2021/01/24 05:45:23;;;;;;;5.50;3.05;;;0.70;99.90;;;;;;4958045;28;20031;-77
2021/01/24 05:47:49;;;;;;;6.38;2.85;;;0.90;99.90;;;;;;4957449;28;20399;-77
2021/01/24 05:50:16;;;;;;;4.22;2.72;;;1.00;99.90;;;;;;4956409;29;20039;-77
2021/01/24 05:52:49;;;;;;;6.03;3.60;;;1.20;99.90;;;;;;4957592;28;20388;-77
2021/01/24 05:55:35;;;;;;;7.05;3.45;;;1.30;99.90;;;;;;4957555;28;20066;-78
2021/01/24 05:58:24;;;;;;;7.90;3.80;;;1.30;99.90;;;;;;4957581;28;20023;-77
2021/01/24 06:00:52;;;;;;;5.38;3.30;;;1.10;99.90;;;;;;4950090;28;20032;-77
2021/01/24 06:03:19;;;;;;;4.57;3.30;;;1.20;99.90;;;;;;4957365;28;20028;-77
2021/01/24 06:05:45;;;;;;;21.77;9.93;;;1.20;99.90;;;;;;4957604;28;20031;-77
2021/01/24 06:08:14;;;;;;;13.50;6.72;;;1.20;99.90;;;;;;4957326;28;20051;-78
2021/01/24 06:10:40;;;;;;;25.58;10.98;;;1.00;99.90;;;;;;4957270;28;20090;-76
2021/01/24 06:13:11;;;;;;;18.05;8.07;;;1.00;99.90;;;;;;4957483;28;20027;-77
2021/01/24 06:15:40;;;;;;;28.17;11.48;;;1.10;99.90;;;;;;4957701;28;20027;-77
2021/01/24 06:18:13;;;;;;;16.50;7.30;;;1.20;99.90;;;;;;4956271;28;20026;-77
2021/01/24 06:20:44;;;;;;;8.87;4.30;;;1.20;99.90;;;;;;4955868;29;20027;-78
2021/01/24 06:23:16;;;;;;;9.55;4.63;;;1.20;99.90;;;;;;4955795;29;20785;-77
2021/01/24 06:25:45;;;;;;;10.02;4.70;;;1.10;99.90;;;;;;4957013;28;20019;-77
2021/01/24 06:28:23;;;;;;;8.48;4.75;;;1.10;99.90;;;;;;4955691;29;20027;-77
2021/01/24 06:30:50;;;;;;;9.07;4.60;;;1.20;99.90;;;;;;4957190;28;20102;-77
2021/01/24 06:33:23;;;;;;;12.73;5.55;;;1.30;99.90;;;;;;4956837;28;20028;-77
2021/01/24 06:35:57;;;;;;;8.38;3.65;;;1.30;99.90;;;;;;4956812;28;20483;-77
2021/01/24 06:38:27;;;;;;;7.35;3.92;;;1.40;99.90;;;;;;4956680;28;20032;-77
2021/01/24 06:40:53;;;;;;;8.45;5.10;;;1.30;99.90;;;;;;4955427;29;20428;-77
2021/01/24 06:43:40;;;;;;;9.32;4.47;;;1.40;99.90;;;;;;4956890;28;20020;-77
2021/01/24 06:46:07;;;;;;;14.07;5.43;;;1.50;99.90;;;;;;4955389;29;20549;-77
2021/01/24 06:48:47;;;;;;;11.88;6.05;;;1.60;99.90;;;;;;4955124;29;20133;-77
2021/01/24 06:51:32;;;;;;;5.10;3.38;;;1.50;99.90;;;;;;4956837;28;20035;-77
2021/01/24 06:53:59;;;;;;;5.35;3.50;;;1.40;99.90;;;;;;4955216;29;20539;-78
2021/01/24 06:56:34;;;;;;;9.63;3.58;;;1.20;99.90;;;;;;4955026;29;20114;-77
2021/01/24 06:58:59;;;;;;;5.63;3.40;;;1.20;99.90;;;;;;4955140;29;20058;-78
2021/01/24 07:01:27;;;;;;;5.32;3.28;;;1.20;99.90;;;;;;4956647;28;20403;-77
2021/01/24 07:04:20;;;;;;;8.07;3.95;;;1.10;99.90;;;;;;4956297;28;20468;-78
2021/01/24 07:06:53;;;;;;;5.82;3.60;;;1.10;99.90;;;;;;4956241;28;20023;-77
2021/01/24 07:09:27;;;;;;;6.90;3.70;;;1.10;99.90;;;;;;4954910;29;20054;-77
2021/01/24 07:11:56;;;;;;;7.75;3.80;;;1.20;99.90;;;;;;4956123;28;20034;-77
2021/01/24 07:14:39;;;;;;;3.85;2.97;;;1.10;99.90;;;;;;4956410;28;20055;-77
2021/01/24 07:17:13;;;;;;;7.35;4.00;;;1.10;99.90;;;;;;4956080;28;20023;-77
2021/01/24 07:19:39;;;;;;;5.35;3.63;;;1.30;99.90;;;;;;4956245;28;20035;-78
2021/01/24 07:22:05;;;;;;;5.75;3.15;;;1.20;99.90;;;;;;4954677;29;20023;-77
2021/01/24 07:24:31;;;;;;;4.97;3.00;;;1.00;99.90;;;;;;4956232;28;20019;-78
2021/01/24 07:26:58;;;;;;;5.88;2.90;;;1.00;99.90;;;;;;4955910;28;20023;-78
2021/01/24 07:29:25;;;;;;;5.15;3.20;;;1.00;99.90;;;;;;4955608;28;20031;-77
2021/01/24 07:31:51;;;;;;;6.97;3.28;;;1.00;99.90;;;;;;4956119;28;20031;-78
2021/01/24 07:34:26;;;;;;;7.53;2.88;;;1.00;99.90;;;;;;4954520;29;20118;-77
2021/01/24 07:36:53;;;;;;;3.95;2.70;;;1.00;99.90;;;;;;4954433;28;20042;-78
2021/01/24 07:39:19;;;;;;;4.65;2.97;;;0.90;99.90;;;;;;4954347;29;20027;-77
2021/01/24 07:41:47;;;;;;;3.78;2.30;;;1.00;99.90;;;;;;4954392;29;20073;-77
2021/01/24 07:44:13;;;;;;;5.43;2.75;;;0.90;99.90;;;;;;4954339;29;20475;-77
2021/01/24 07:46:39;;;;;;;6.30;2.50;;;0.80;99.90;;;;;;4955880;28;20539;-77
2021/01/24 07:49:05;;;;;;;4.15;2.85;;;0.70;99.90;;;;;;4954163;29;20079;-77
2021/01/24 07:51:31;;;;;;;6.68;2.85;;;0.60;99.90;;;;;;4955597;28;20457;-77
2021/01/24 07:53:57;;;;;;;6.47;3.00;;;0.60;99.90;;;;;;4955538;28;20031;-77
2021/01/24 07:56:23;;;;;;;5.85;3.15;;;0.60;99.90;;;;;;4954210;29;20370;-78
2021/01/24 07:58:49;;;;;;;5.70;3.17;;;0.60;99.90;;;;;;4954154;29;20024;-77
2021/01/24 08:01:16;;;;;;;6.10;3.08;;;0.80;99.90;;;;;;4954152;29;20506;-77
2021/01/24 08:03:42;;;;;;;9.75;2.95;;;0.80;99.90;;;;;;4954455;29;20030;-77
2021/01/24 08:06:12;;;;;;;6.55;3.03;;;0.80;99.90;;;;;;4955392;28;20082;-77
2021/01/24 08:08:39;;;;;;;6.10;3.30;;;0.80;99.90;;;;;;4955340;28;20503;-77
2021/01/24 08:11:05;;;;;;;6.10;3.10;;;0.70;99.90;;;;;;4954063;29;20031;-77
2021/01/24 08:13:32;;;;;;;8.73;4.15;;;0.80;99.90;;;;;;4954096;29;20031;-77
2021/01/24 08:16:00;;;;;;;6.53;3.63;;;1.00;99.90;;;;;;4955540;28;20515;-77
2021/01/24 08:18:31;;;;;;;5.40;2.78;;;1.10;99.90;;;;;;4955174;28;20479;-78
2021/01/24 08:20:57;;;;;;;3.47;2.92;;;1.30;99.90;;;;;;4955283;28;20062;-77
2021/01/24 08:23:28;;;;;;;7.10;2.70;;;1.50;99.90;;;;;;4953965;29;20027;-77
2021/01/24 08:26:00;;;;;;;7.57;3.25;;;1.50;99.90;;;;;;4953971;29;20034;-78
2021/01/24 08:28:26;;;;;;;8.40;2.90;;;1.50;99.90;;;;;;4955502;28;20031;-78
2021/01/24 08:30:52;;;;;;;4.30;2.30;;;1.30;99.90;;;;;;4954451;29;20028;-78
2021/01/24 08:33:19;;;;;;;4.97;2.65;;;1.00;99.90;;;;;;4953957;29;20034;-78
2021/01/24 08:35:48;;;;;;;4.55;2.53;;;0.80;99.90;;;;;;4955400;28;20031;-77
2021/01/24 08:38:14;;;;;;;7.30;2.90;;;0.80;99.90;;;;;;4955347;28;20058;-78
2021/01/24 08:40:41;;;;;;;7.20;2.67;;;1.00;99.90;;;;;;4954852;28;20031;-78
2021/01/24 08:43:07;;;;;;;6.13;3.08;;;1.30;99.90;;;;;;4958864;28;20038;-78
2021/01/24 08:45:34;;;;;;;8.43;3.10;;;1.40;99.90;;;;;;4958836;28;20019;-78
2021/01/24 08:48:01;;;;;;;3.95;2.35;;;1.40;99.90;;;;;;4958538;29;20494;-77
2021/01/24 08:50:35;;;;;;;5.75;2.97;;;1.20;99.90;;;;;;4958999;28;20035;-79
2021/01/24 08:53:06;;;;;;;5.88;2.90;;;1.00;99.90;;;;;;4957415;29;20023;-78
2021/01/24 08:55:46;;;;;;;7.15;3.67;;;1.00;99.90;;;;;;4958851;28;20475;-78
2021/01/24 08:58:25;;;;;;;6.65;2.90;;;0.90;99.90;;;;;;4957361;29;20038;-78
2021/01/24 09:01:11;;;;;;;5.93;3.03;;;0.80;99.90;;;;;;4957281;29;20027;-78
2021/01/24 09:03:36;;;;;;;6.45;3.70;;;0.90;99.90;;;;;;4958538;28;20023;-78
2021/01/24 09:06:15;;;;;;;6.85;3.50;;;1.00;99.90;;;;;;4957164;29;20104;-79
2021/01/24 09:08:52;;;;;;;6.28;3.47;;;1.10;99.90;;;;;;4957172;29;20031;-78
2021/01/24 09:11:19;;;;;;;3.53;2.85;;;1.20;99.90;;;;;;4957098;29;20035;-78
2021/01/24 09:13:45;;;;;;;9.55;5.28;;;1.30;99.90;;;;;;4958272;28;20391;-78
2021/01/24 09:16:10;;;;;;;6.90;4.03;;;1.40;99.90;;;;;;4956975;29;20027;-78
2021/01/24 09:18:36;;;;;;;7.43;3.13;;;1.50;99.90;;;;;;4956823;29;20023;-79
2021/01/24 09:21:03;;;;;;;6.15;3.72;;;1.50;99.90;;;;;;4958141;28;20110;-79
2021/01/24 09:23:29;;;;;;;5.63;2.70;;;1.50;99.90;;;;;;4956767;29;20023;-78
2021/01/24 09:25:55;;;;;;;6.85;3.35;;;1.50;99.90;;;;;;4958027;28;20096;-78
2021/01/24 09:28:21;;;;;;;6.80;3.47;;;1.30;99.90;;;;;;4957988;28;20055;-79
2021/01/24 09:30:47;;;;;;;4.65;3.42;;;1.50;99.90;;;;;;4957977;28;20086;-79
2021/01/24 09:33:12;;;;;;;4.18;2.95;;;1.60;99.90;;;;;;4956663;29;20098;-79
2021/01/24 09:35:38;;;;;;;7.15;3.75;;;1.70;99.90;;;;;;4956568;29;20467;-79
2021/01/24 09:38:04;;;;;;;6.07;3.13;;;1.90;99.90;;;;;;4957895;28;20031;-79
2021/01/24 09:40:30;;;;;;;8.02;3.30;;;2.10;99.90;;;;;;4957698;28;20032;-78
2021/01/24 09:42:56;;;;;;;6.38;3.10;;;2.30;99.90;;;;;;4956483;29;20122;-79
2021/01/24 09:45:23;;;;;;;5.15;2.65;;;2.50;99.90;;;;;;4957538;28;20023;-78
2021/01/24 09:47:50;;;;;;;8.50;3.03;;;2.60;99.90;;;;;;4957404;28;20027;-78
2021/01/24 09:50:17;;;;;;;8.35;3.10;;;2.80;99.90;;;;;;4956307;29;20031;-78
2021/01/24 09:52:43;;;;;;;8.07;2.85;;;2.70;99.90;;;;;;4956109;28;20126;-78
2021/01/24 09:55:09;;;;;;;6.88;2.80;;;2.80;99.90;;;;;;4957538;28;20066;-78
2021/01/24 09:57:36;;;;;;;6.32;2.55;;;2.60;99.90;;;;;;4957367;28;20166;-78
2021/01/24 10:00:04;;;;;;;3.83;2.03;;;2.80;99.90;;;;;;4956049;29;20421;-78
2021/01/24 10:02:29;;;;;;;5.65;2.80;;;2.80;99.90;;;;;;4956087;29;20030;-78
2021/01/24 10:04:55;;;;;;;16.17;6.03;;;2.70;99.90;;;;;;4957540;28;20371;-78
2021/01/24 10:07:21;;;;;;;10.90;4.55;;;2.70;99.90;;;;;;4956330;29;20031;-78
2021/01/24 10:09:46;;;;;;;63.50;17.45;;;2.80;99.90;;;;;;4957544;28;20062;-78
2021/01/24 10:12:12;;;;;;;20.88;7.00;;;2.90;99.90;;;;;;4955942;29;20506;-79
2021/01/24 10:14:38;;;;;;;104.63;27.23;;;2.70;99.90;;;;;;4955931;29;20030;-77
2021/01/24 10:17:04;;;;;;;9.43;3.38;;;2.60;99.90;;;;;;4955870;29;20031;-80
2021/01/24 10:19:29;;;;;;;42.83;10.63;;;2.60;99.90;;;;;;4956947;28;20027;-80
2021/01/24 10:21:55;;;;;;;161.10;35.08;;;2.80;99.90;;;;;;4957005;29;20030;-77
2021/01/24 10:24:21;;;;;;;16.05;9.95;;;2.80;99.90;;;;;;4955779;29;20117;-79
2021/01/24 10:26:46;;;;;;;7.57;4.38;;;2.80;99.90;;;;;;4955670;29;20078;-79
2021/01/24 10:29:12;;;;;;;5.15;2.40;;;3.50;99.90;;;;;;4955672;29;20026;-78
2021/01/24 10:31:38;;;;;;;6.25;2.78;;;3.80;99.90;;;;;;4955629;29;20534;-78
2021/01/24 10:34:03;;;;;;;4.63;2.20;;;3.90;99.90;;;;;;4955539;29;20558;-79
2021/01/24 10:36:29;;;;;;;6.35;2.15;;;4.20;99.90;;;;;;4955489;28;20030;-79
2021/01/24 10:38:55;;;;;;;6.75;2.88;;;4.40;99.90;;;;;;4955331;29;20031;-78
2021/01/24 10:41:20;;;;;;;2.97;1.75;;;4.70;99.90;;;;;;4955411;29;20030;-79
2021/01/24 10:43:46;;;;;;;4.60;1.77;;;4.60;99.90;;;;;;4956705;28;20023;-78
2021/01/24 10:46:12;;;;;;;2.67;2.00;;;3.60;99.90;;;;;;4955351;29;20050;-79
2021/01/24 10:48:39;;;;;;;4.00;2.08;;;3.50;99.90;;;;;;4956531;28;20043;-78
2021/01/24 10:51:06;;;;;;;6.53;2.40;;;3.40;99.90;;;;;;4956764;28;20415;-77
2021/01/24 10:53:33;;;;;;;3.67;2.38;;;3.50;99.90;;;;;;4955205;29;20502;-79
2021/01/24 10:55:59;;;;;;;29.95;11.27;;;3.30;99.90;;;;;;4956395;28;20479;-79
2021/01/24 10:58:25;;;;;;;8.15;3.85;;;3.40;99.90;;;;;;4955013;29;20028;-79
2021/01/24 11:00:53;;;;;;;5.00;2.35;;;3.60;99.90;;;;;;4955072;29;20031;-79
2021/01/24 11:03:18;;;;;;;3.15;2.08;;;3.50;99.90;;;;;;4955928;28;20020;-79
2021/01/24 11:05:44;;;;;;;6.20;2.03;;;3.40;99.90;;;;;;4955020;29;20035;-79
2021/01/24 11:08:10;;;;;;;4.38;1.77;;;3.40;99.90;;;;;;4956266;28;20074;-79
2021/01/24 11:10:35;;;;;;;11.15;2.47;;;3.00;99.90;;;;;;4956497;28;20023;-79
2021/01/24 11:13:01;;;;;;;5.78;2.35;;;2.90;99.90;;;;;;4954898;29;20038;-78
2021/01/24 11:15:27;;;;;;;2.83;2.03;;;2.90;99.90;;;;;;4956647;28;20030;-79
2021/01/24 11:17:53;;;;;;;5.75;2.38;;;2.70;99.90;;;;;;4956376;28;20051;-79
2021/01/24 11:20:19;;;;;;;5.00;2.92;;;2.80;99.90;;;;;;4955956;28;20024;-79
2021/01/24 11:22:45;;;;;;;4.75;2.00;;;2.90;99.90;;;;;;4956022;28;20030;-78
2021/01/24 11:25:11;;;;;;;4.65;1.98;;;2.80;99.90;;;;;;4954669;29;20476;-78
2021/01/24 11:27:37;;;;;;;5.70;2.15;;;2.80;99.90;;;;;;4954584;29;20027;-79
2021/01/24 11:30:09;;;;;;;8.63;2.13;;;2.60;99.90;;;;;;4954594;29;20034;-78
2021/01/24 11:32:35;;;;;;;4.32;1.88;;;3.40;99.90;;;;;;4954858;29;20398;-78
2021/01/24 11:35:02;;;;;;;4.90;2.28;;;3.30;99.90;;;;;;4955800;28;20034;-79
2021/01/24 11:37:28;;;;;;;3.75;1.73;;;3.10;99.90;;;;;;4954392;28;20023;-79
2021/01/24 11:39:54;;;;;;;2.80;1.67;;;3.30;99.90;;;;;;4954399;29;20090;-78
2021/01/24 11:42:19;;;;;;;2.70;1.70;;;3.30;99.90;;;;;;4954444;29;20030;-78
2021/01/24 11:44:46;;;;;;;4.40;1.95;;;3.70;99.90;;;;;;4955633;28;20054;-78
2021/01/24 11:47:11;;;;;;;5.45;2.15;;;3.80;99.90;;;;;;4955612;28;20048;-78
2021/01/24 11:49:37;;;;;;;2.97;1.85;;;4.00;99.90;;;;;;4954087;29;20135;-78
2021/01/24 11:52:03;;;;;;;2.28;1.80;;;3.90;99.90;;;;;;4955527;28;20550;-79
2021/01/24 11:54:28;;;;;;;2.15;1.50;;;3.70;99.90;;;;;;4955802;28;20042;-78
2021/01/24 11:56:54;;;;;;;4.32;1.95;;;3.40;99.90;;;;;;4955458;28;20031;-78
2021/01/24 11:59:20;;;;;;;3.03;1.95;;;3.30;99.90;;;;;;4955393;28;20058;-78
2021/01/24 12:01:46;;;;;;;2.67;1.73;;;3.30;99.90;;;;;;4954140;29;20027;-78
2021/01/24 12:04:11;;;;;;;9.15;1.55;;;3.20;99.90;;;;;;4953886;29;20106;-78
2021/01/24 12:06:37;;;;;;;3.90;1.92;;;3.30;99.90;;;;;;4953708;29;20368;-77
2021/01/24 12:09:03;;;;;;;3.40;2.05;;;3.00;99.90;;;;;;4954128;29;20114;-78
2021/01/24 12:11:28;;;;;;;3.92;2.65;;;3.10;99.90;;;;;;4955628;28;20031;-78
2021/01/24 12:13:54;;;;;;;2.90;1.67;;;3.00;99.90;;;;;;4955615;28;20035;-77
2021/01/24 12:16:21;;;;;;;9.77;5.40;;;3.00;99.90;;;;;;4956255;28;20368;-77
2021/01/24 12:18:47;;;;;;;5.45;1.88;;;3.30;99.90;;;;;;4957995;29;20487;-78
2021/01/24 12:21:13;;;;;;;6.18;2.38;;;3.80;99.90;;;;;;4959266;28;20028;-78
2021/01/24 12:23:39;;;;;;;7.07;4.65;;;4.60;99.90;;;;;;4959484;28;20069;-78
2021/01/24 12:26:05;;;;;;;7.10;4.05;;;5.00;99.90;;;;;;4957837;29;20027;-78
2021/01/24 12:28:31;;;;;;;8.10;5.35;;;4.80;99.90;;;;;;4959190;28;20031;-78
2021/01/24 12:30:57;;;;;;;2.80;1.77;;;4.60;99.90;;;;;;4959060;28;20419;-78
2021/01/24 12:33:22;;;;;;;2.33;1.52;;;4.60;99.90;;;;;;4957767;29;20035;-78
2021/01/24 12:35:48;;;;;;;3.33;1.88;;;4.40;99.90;;;;;;4957655;28;20114;-78
2021/01/24 12:38:15;;;;;;;4.93;1.88;;;5.10;99.90;;;;;;4957732;29;20066;-78
2021/01/24 12:40:41;;;;;;;5.18;1.90;;;5.70;99.90;;;;;;4959377;28;20051;-78
2021/01/24 12:43:06;;;;;;;4.38;2.05;;;6.80;99.90;;;;;;4958823;28;20353;-78
2021/01/24 12:45:32;;;;;;;2.78;1.38;;;7.90;99.90;;;;;;4957586;29;20118;-78
2021/01/24 12:47:58;;;;;;;3.83;1.80;;;8.50;99.90;;;;;;4957453;29;20023;-78
2021/01/24 12:50:23;;;;;;;2.97;1.42;;;7.80;99.90;;;;;;4958755;28;20035;-78
2021/01/24 12:52:49;;;;;;;3.45;1.77;;;7.00;99.90;;;;;;4957418;29;20110;-78
2021/01/24 12:55:15;;;;;;;5.03;1.60;;;7.20;99.90;;;;;;4958619;28;20031;-78
2021/01/24 12:57:42;;;;;;;2.90;1.30;;;8.20;99.90;;;;;;4957363;29;20031;-78
2021/01/24 13:00:09;;;;;;;4.13;1.27;;;8.80;99.90;;;;;;4957198;29;20447;-78